createdAt,value
2023-02-08T00:05:59.868Z,100.00
2023-02-08T00:11:59.548Z,100.00
2023-02-08T00:17:59.648Z,100.00
2023-02-08T00:23:59.556Z,100.00
2023-02-08T00:29:59.509Z,100.00
2023-02-08T00:35:59.478Z,100.00
2023-02-08T00:41:59.047Z,100.00
2023-02-08T00:47:58.936Z,100.00
2023-02-08T00:53:58.884Z,100.00
2023-02-08T00:59:58.758Z,100.00
2023-02-08T01:05:58.536Z,100.00
2023-02-08T01:11:58.206Z,100.00
2023-02-08T01:17:58.687Z,100.00
2023-02-08T01:23:58.741Z,100.00
2023-02-08T01:29:58.628Z,100.00
2023-02-08T01:35:58.396Z,100.00
2023-02-08T01:41:58.268Z,100.00
2023-02-08T01:45:19.855Z,100.00
2023-02-08T01:51:00.972Z,100.00
2023-02-08T01:54:05.601Z,100.00
2023-02-08T01:59:46.974Z,100.00
2023-02-08T02:02:51.501Z,100.00
2023-02-08T02:08:33.281Z,100.00
2023-02-08T02:11:37.931Z,100.00
2023-02-08T02:17:19.249Z,100.00
2023-02-08T02:20:23.972Z,100.00
2023-02-08T02:26:09.420Z,100.00
2023-02-08T02:29:14.082Z,100.00
2023-02-08T02:35:02.978Z,100.00
2023-02-08T02:38:07.658Z,100.00
2023-02-08T02:43:49.360Z,100.00
2023-02-08T02:46:54.061Z,100.00
2023-02-08T02:52:35.430Z,100.00
2023-02-08T02:55:39.957Z,100.00
2023-02-08T03:01:21.125Z,100.00
2023-02-08T03:04:25.819Z,100.00
2023-02-08T03:10:10.515Z,100.00
2023-02-08T03:13:15.107Z,100.00
2023-02-08T03:18:57.203Z,100.00
2023-02-08T03:22:01.889Z,100.00
2023-02-08T03:27:45.100Z,100.00
2023-02-08T03:33:45.367Z,100.00
2023-02-08T03:39:45.453Z,100.00
2023-02-08T03:45:45.576Z,100.00
2023-02-08T03:51:47.570Z,100.00
2023-02-08T03:57:47.878Z,100.00
2023-02-08T04:03:49.490Z,100.00
2023-02-08T04:09:49.389Z,100.00
2023-02-08T04:15:50.455Z,100.00
2023-02-08T04:21:50.445Z,100.00
2023-02-08T04:27:50.405Z,100.00
2023-02-08T04:33:50.406Z,100.00
2023-02-08T04:39:52.403Z,100.00
2023-02-08T04:45:52.080Z,100.00
2023-02-08T04:51:52.217Z,100.00
2023-02-08T04:57:54.442Z,100.00
2023-02-08T05:03:54.227Z,100.00
2023-02-08T05:09:54.147Z,100.00
2023-02-08T05:15:54.221Z,100.00
2023-02-08T05:21:54.209Z,100.00
2023-02-08T05:27:54.105Z,100.00
2023-02-08T05:33:54.164Z,100.00
2023-02-08T05:39:54.146Z,100.00
2023-02-08T05:45:54.202Z,100.00
2023-02-08T05:51:55.899Z,100.00
2023-02-08T05:57:55.604Z,100.00
2023-02-08T06:03:55.596Z,100.00
2023-02-08T06:09:57.391Z,100.00
2023-02-08T06:15:57.529Z,100.00
2023-02-08T06:21:57.592Z,100.00
2023-02-08T06:27:57.661Z,100.00
2023-02-08T06:33:56.967Z,100.00
2023-02-08T06:39:56.784Z,100.00
2023-02-08T06:45:56.861Z,100.00
2023-02-08T06:51:57.019Z,100.00
2023-02-08T06:57:57.050Z,100.00
2023-02-08T07:03:59.467Z,100.00
2023-02-08T07:09:59.453Z,100.00
2023-02-08T07:16:03.551Z,100.00
2023-02-08T07:22:05.100Z,100.00
2023-02-08T07:28:03.781Z,100.00
2023-02-08T07:34:03.489Z,100.00
2023-02-08T07:40:03.422Z,100.00
2023-02-08T07:46:04.154Z,100.00
2023-02-08T07:52:04.323Z,100.00
2023-02-08T07:58:04.448Z,100.00
2023-02-08T08:04:04.305Z,100.00
2023-02-08T08:10:06.817Z,100.00
2023-02-08T08:16:07.565Z,96.37
2023-02-08T08:22:07.408Z,86.18
2023-02-08T08:28:07.143Z,82.07
2023-02-08T08:34:07.203Z,77.96
2023-02-08T08:40:06.824Z,73.44
2023-02-08T08:46:07.297Z,69.38
2023-02-08T08:57:29.083Z,69.94
2023-02-08T12:14:30.149Z,61.33
2023-02-08T13:51:54.078Z,50.02
2023-02-08T13:57:39.701Z,50.81
